Time;durP1;ratioP1;P1;durP2;ratioP2;P2;SDS_P1;SDS_P2;PMS_P1;PMS_P2;Temp;Humidity;BMP_temperature;BMP_pressure;BME280_temperature;BME280_humidity;BME280_pressure;Samples;Min_cycle;Max_cycle;Signal;HPM_P1;HPM_P2
2022/05/30 00:00:08;;;;;;;5.10;1.90;;;;;;;12.53;62.82;101047.63;5012739;28;20124;-44
2022/05/30 00:02:34;;;;;;;7.57;2.25;;;;;;;12.54;62.80;101045.75;5013687;28;20494;-46
2022/05/30 00:05:00;;;;;;;16.30;2.58;;;;;;;12.54;62.70;101040.38;5010067;28;20036;-44
2022/05/30 00:07:27;;;;;;;7.85;2.38;;;;;;;12.52;63.27;101035.25;5013336;28;20029;-45
2022/05/30 00:09:54;;;;;;;8.40;1.85;;;;;;;12.52;63.27;101037.13;5010535;28;20025;-44
2022/05/30 00:12:20;;;;;;;8.73;2.25;;;;;;;12.50;63.35;101036.59;5010968;28;20037;-45
2022/05/30 00:14:45;;;;;;;5.78;1.63;;;;;;;12.46;63.41;101036.28;5030216;28;20068;-45
2022/05/30 00:17:11;;;;;;;6.78;1.67;;;;;;;12.43;63.60;101042.19;5017767;28;20053;-45
2022/05/30 00:19:38;;;;;;;3.65;1.80;;;;;;;12.41;63.87;101041.63;5017878;28;20483;-44
2022/05/30 00:22:06;;;;;;;2.97;1.70;;;;;;;12.37;63.77;101037.78;5019494;28;20410;-44
2022/05/30 00:24:33;;;;;;;3.67;2.03;;;;;;;12.33;64.29;101037.50;5018546;28;20030;-44
2022/05/30 00:26:58;;;;;;;4.15;1.92;;;;;;;12.33;64.33;101042.88;5018723;28;20021;-46
2022/05/30 00:29:25;;;;;;;4.68;2.83;;;;;;;12.32;64.38;101041.25;5015274;28;20029;-45
2022/05/30 00:31:50;;;;;;;4.75;1.98;;;;;;;12.31;64.35;101042.31;5021865;28;20033;-45
2022/05/30 00:34:18;;;;;;;5.03;1.98;;;;;;;12.30;64.34;101040.69;5017109;28;20126;-45
2022/05/30 00:36:43;;;;;;;7.03;2.50;;;;;;;12.29;64.32;101049.81;5016172;28;20037;-44
2022/05/30 00:39:09;;;;;;;5.75;2.53;;;;;;;12.25;64.50;101045.19;5017538;28;20026;-45
2022/05/30 00:41:35;;;;;;;3.45;2.00;;;;;;;12.24;64.57;101047.06;5013760;28;20505;-45
2022/05/30 00:44:01;;;;;;;4.78;2.10;;;;;;;12.24;64.31;101039.03;5020996;28;20025;-44
2022/05/30 00:46:27;;;;;;;3.35;2.33;;;;;;;12.24;64.63;101047.06;5016895;28;20683;-44
2022/05/30 00:48:59;;;;;;;3.88;2.20;;;;;;;12.23;64.80;101037.41;5020589;28;20056;-44
2022/05/30 00:51:48;;;;;;;4.90;2.70;;;;;;;12.21;64.95;101047.59;5016970;28;20517;-44
2022/05/30 00:54:21;;;;;;;5.65;2.30;;;;;;;12.22;64.79;101045.72;5014637;28;20133;-46
2022/05/30 00:56:54;;;;;;;5.35;2.30;;;;;;;12.18;65.00;101042.69;5017021;28;20022;-44
2022/05/30 00:59:20;;;;;;;5.57;2.80;;;;;;;12.15;64.68;101050.44;5018463;28;20104;-46
2022/05/30 01:01:46;;;;;;;4.55;2.25;;;;;;;12.12;64.92;101051.75;5016911;28;20535;-45
2022/05/30 01:07:04;;;;;;;5.10;2.67;;;;;;;12.07;65.00;101044.47;5015135;28;20181;-44
2022/05/30 01:09:36;;;;;;;5.35;2.00;;;;;;;12.05;65.64;101045.78;5018600;28;20036;-46
2022/05/30 01:12:10;;;;;;;7.50;2.78;;;;;;;12.00;65.88;101048.38;5017453;28;20025;-45
2022/05/30 01:14:39;;;;;;;6.93;2.70;;;;;;;12.00;65.63;101043.81;5024056;28;20053;-44
2022/05/30 01:17:11;;;;;;;8.85;3.08;;;;;;;11.99;65.82;101038.69;5019407;28;20156;-44
2022/05/30 01:19:46;;;;;;;5.57;2.75;;;;;;;11.96;66.21;101040.03;5018304;28;20484;-45
2022/05/30 01:22:32;;;;;;;3.83;2.30;;;;;;;11.92;66.31;101036.22;5017640;28;20044;-44
2022/05/30 01:25:16;;;;;;;3.05;2.50;;;;;;;11.96;66.14;101045.38;5017168;28;20033;-44
2022/05/30 01:28:19;;;;;;;3.83;2.55;;;;;;;11.98;66.24;101042.44;5020105;28;20187;-44
2022/05/30 01:30:45;;;;;;;3.88;2.05;;;;;;;12.01;65.99;101039.25;5011072;28;20039;-45
2022/05/30 01:33:10;;;;;;;4.88;2.63;;;;;;;12.03;65.71;101046.03;5017465;28;20535;-44
2022/05/30 01:35:36;;;;;;;5.72;2.83;;;;;;;12.02;65.88;101048.94;5011214;28;20048;-45
2022/05/30 01:38:01;;;;;;;5.68;2.90;;;;;;;11.96;65.94;101045.38;5016331;28;20026;-45
2022/05/30 01:40:27;;;;;;;2.88;2.13;;;;;;;11.96;66.19;101047.25;5014012;28;20125;-46
2022/05/30 01:42:53;;;;;;;4.45;2.67;;;;;;;11.98;66.24;101040.56;5014405;28;20376;-44
2022/05/30 01:45:19;;;;;;;5.38;2.95;;;;;;;11.96;66.40;101037.34;5016866;28;20034;-44
2022/05/30 01:47:45;;;;;;;4.60;2.78;;;;;;;11.95;66.34;101035.72;5016031;28;20487;-44
2022/05/30 01:50:11;;;;;;;5.20;2.45;;;;;;;11.94;66.32;101046.69;5014979;28;20018;-46
2022/05/30 01:52:37;;;;;;;2.90;2.28;;;;;;;11.94;66.43;101035.97;5018146;28;20200;-45
2022/05/30 01:55:03;;;;;;;4.53;2.58;;;;;;;11.93;66.66;101031.66;5016626;28;20514;-45
2022/05/30 01:57:29;;;;;;;3.05;2.20;;;;;;;11.94;66.69;101038.66;5011931;28;20138;-44
2022/05/30 01:59:55;;;;;;;4.55;2.33;;;;;;;11.90;66.83;101038.34;5015916;28;20029;-44
2022/05/30 02:02:20;;;;;;;2.30;2.03;;;;;;;11.87;67.05;101035.34;5017220;28;20072;-44
2022/05/30 02:04:46;;;;;;;4.03;2.83;;;;;;;11.89;66.84;101038.59;5019128;28;20029;-44
2022/05/30 02:07:11;;;;;;;5.28;3.08;;;;;;;11.87;66.85;101038.03;5019094;28;20411;-44
2022/05/30 02:09:37;;;;;;;2.97;2.45;;;;;;;11.85;67.17;101045.50;5014754;28;20032;-44
2022/05/30 02:12:03;;;;;;;3.78;2.42;;;;;;;11.84;67.04;101039.31;5022170;28;20021;-44
2022/05/30 02:14:29;;;;;;;9.65;2.53;;;;;;;11.83;67.33;101031.50;5020689;28;20471;-45
2022/05/30 02:17:00;;;;;;;3.63;2.58;;;;;;;11.83;67.01;101031.50;5018181;28;20078;-44
2022/05/30 02:19:27;;;;;;;4.25;2.33;;;;;;;11.79;67.46;101032.03;5022988;28;20104;-45
2022/05/30 02:21:53;;;;;;;4.97;2.42;;;;;;;11.81;67.02;101034.44;5018384;28;20038;-44
2022/05/30 02:24:18;;;;;;;7.10;2.45;;;;;;;11.78;67.06;101035.75;5012652;28;20049;-45
2022/05/30 02:26:44;;;;;;;4.38;2.58;;;;;;;11.70;67.35;101036.19;5015993;28;20546;-44
2022/05/30 02:29:10;;;;;;;4.30;2.28;;;;;;;11.66;67.28;101035.03;5013482;28;20021;-44
2022/05/30 02:31:36;;;;;;;4.40;2.78;;;;;;;11.60;67.63;101033.34;5015242;28;20032;-44
2022/05/30 02:36:46;;;;;;;2.92;2.30;;;;;;;11.56;67.59;101042.97;5022217;28;20037;-44
2022/05/30 02:39:18;;;;;;;6.63;2.40;;;;;;;11.57;67.73;101041.91;5011847;28;20037;-45
2022/05/30 02:41:44;;;;;;;4.15;2.45;;;;;;;11.55;67.63;101035.97;5015989;28;20036;-45
2022/05/30 02:44:11;;;;;;;4.57;2.47;;;;;;;11.53;67.41;101030.03;5014589;28;20033;-44
2022/05/30 02:46:37;;;;;;;4.57;2.70;;;;;;;11.50;67.43;101035.91;5019055;28;20439;-45
2022/05/30 02:49:03;;;;;;;5.10;2.28;;;;;;;11.44;67.64;101034.19;5017545;28;20490;-44
2022/05/30 02:51:29;;;;;;;4.43;2.55;;;;;;;11.45;67.64;101038.50;5015199;28;20034;-44
2022/05/30 02:53:56;;;;;;;4.57;2.53;;;;;;;11.42;67.64;101031.75;5013115;28;20387;-45
2022/05/30 02:56:21;;;;;;;4.47;2.28;;;;;;;11.38;67.76;101035.19;5013115;28;20441;-44
2022/05/30 02:58:47;;;;;;;4.75;2.30;;;;;;;11.35;67.72;101036.50;5013218;28;20044;-46
2022/05/30 03:01:13;;;;;;;5.38;2.50;;;;;;;11.33;67.59;101035.94;5014753;28;20068;-44
2022/05/30 03:03:39;;;;;;;5.13;2.63;;;;;;;11.33;67.66;101035.13;5013659;28;20029;-45
2022/05/30 03:06:05;;;;;;;3.10;2.40;;;;;;;11.31;67.56;101035.38;5011245;28;20120;-44
2022/05/30 03:08:31;;;;;;;3.83;2.58;;;;;;;11.31;67.73;101037.19;5021229;28;20125;-45
2022/05/30 03:10:57;;;;;;;6.28;2.40;;;;;;;11.29;67.91;101034.78;5013426;28;20543;-44
2022/05/30 03:13:22;;;;;;;3.63;2.40;;;;;;;11.30;67.76;101027.53;5013366;28;20040;-44
2022/05/30 03:15:48;;;;;;;3.25;2.03;;;;;;;11.28;67.89;101032.34;5012163;28;20017;-44
2022/05/30 03:18:14;;;;;;;5.25;2.38;;;;;;;11.26;67.68;101037.94;5013027;28;20120;-43
2022/05/30 03:20:39;;;;;;;3.03;2.42;;;;;;;11.25;67.83;101040.88;5013158;28;20044;-44
2022/05/30 03:23:06;;;;;;;3.65;2.38;;;;;;;11.19;67.96;101050.72;5010886;28;20348;-45
2022/05/30 03:25:31;;;;;;;4.68;2.58;;;;;;;11.13;68.41;101047.16;5012452;28;20021;-45
2022/05/30 03:27:57;;;;;;;4.13;2.70;;;;;;;11.00;69.14;101055.53;5012489;28;20028;-45
2022/05/30 03:30:23;;;;;;;4.80;2.53;;;;;;;10.94;69.24;101056.47;5013361;28;20163;-44
2022/05/30 03:32:49;;;;;;;2.65;2.20;;;;;;;10.89;69.10;101065.25;5015599;28;20017;-44
2022/05/30 03:35:16;;;;;;;4.10;2.53;;;;;;;10.87;69.13;101067.34;5030794;22;20195;-48
2022/05/30 03:37:44;;;;;;;2.67;2.10;;;;;;;10.87;69.18;101069.22;5023510;28;20091;-49
2022/05/30 03:40:14;;;;;;;3.50;2.28;;;;;;;10.89;69.44;101064.44;5019653;28;20033;-48
2022/05/30 03:42:40;;;;;;;6.55;2.78;;;;;;;10.90;69.38;101061.50;5021685;28;20505;-48
2022/05/30 03:45:07;;;;;;;4.25;2.50;;;;;;;10.92;69.70;101073.84;5017474;28;20029;-48
2022/05/30 03:47:43;;;;;;;3.75;2.92;;;;;;;10.89;70.44;101073.28;5006780;28;20035;-48
2022/05/30 03:50:13;;;;;;;5.95;2.42;;;;;;;10.93;70.74;101064.75;5007188;28;20224;-49
2022/05/30 03:52:38;;;;;;;3.75;2.47;;;;;;;11.00;70.59;101065.44;5000973;28;20031;-49
2022/05/30 03:55:11;;;;;;;2.55;2.22;;;;;;;11.08;70.00;101070.38;5003489;28;20593;-49
2022/05/30 03:57:39;;;;;;;4.07;2.47;;;;;;;11.11;69.77;101076.06;5004780;28;20022;-48
2022/05/30 04:00:09;;;;;;;5.35;2.80;;;;;;;11.11;70.44;101065.34;5001515;28;20029;-48
2022/05/30 04:02:35;;;;;;;3.38;2.60;;;;;;;11.14;70.30;101067.56;5003475;28;20026;-48
2022/05/30 04:05:00;;;;;;;5.00;2.72;;;;;;;11.16;70.10;101065.44;5002123;28;20045;-48
2022/05/30 04:07:26;;;;;;;4.60;2.90;;;;;;;11.17;70.24;101072.44;5004942;28;20116;-49
2022/05/30 04:09:52;;;;;;;2.60;2.40;;;;;;;11.19;70.20;101075.66;5003797;28;20026;-48
2022/05/30 04:12:21;;;;;;;3.17;2.33;;;;;;;11.21;70.82;101072.75;5004020;28;20080;-49
2022/05/30 04:14:55;;;;;;;8.45;2.83;;;;;;;11.23;70.58;101078.69;5004241;28;20026;-48
2022/05/30 04:17:22;;;;;;;4.20;3.25;;;;;;;11.25;70.96;101073.88;5002599;28;20060;-48
2022/05/30 04:19:47;;;;;;;3.20;2.50;;;;;;;11.23;71.33;101084.03;5004759;28;20018;-48
2022/05/30 04:22:13;;;;;;;6.22;2.95;;;;;;;11.24;71.57;101084.84;5005843;28;20026;-49
2022/05/30 04:24:39;;;;;;;6.13;3.25;;;;;;;11.26;72.47;101085.41;5001856;28;20087;-48
2022/05/30 04:27:05;;;;;;;5.20;2.60;;;;;;;11.30;72.30;101084.69;5001821;28;20029;-48
2022/05/30 04:29:30;;;;;;;5.30;2.70;;;;;;;11.38;71.56;101078.91;5001993;28;20038;-48
2022/05/30 04:31:56;;;;;;;5.22;2.70;;;;;;;11.42;71.35;101079.22;5004359;28;20029;-48
2022/05/30 04:34:21;;;;;;;3.88;3.00;;;;;;;11.45;71.62;101076.06;5002317;28;21437;-49
2022/05/30 04:36:47;;;;;;;4.20;2.95;;;;;;;11.47;71.94;101073.94;5005968;28;20380;-48
2022/05/30 04:39:14;;;;;;;4.95;2.65;;;;;;;11.46;72.54;101075.81;5003229;28;20041;-49
2022/05/30 04:41:39;;;;;;;3.50;2.67;;;;;;;11.45;73.16;101071.50;5003395;28;20113;-48
2022/05/30 04:44:05;;;;;;;5.00;2.63;;;;;;;11.51;72.59;101080.47;5001309;28;20133;-48
2022/05/30 04:46:30;;;;;;;4.07;2.70;;;;;;;11.54;72.74;101077.28;5003697;28;20025;-48
2022/05/30 04:48:56;;;;;;;6.57;3.05;;;;;;;11.57;72.56;101074.09;5007045;28;20057;-49
2022/05/30 04:51:21;;;;;;;5.07;3.00;;;;;;;11.60;73.04;101073.59;5007312;28;20302;-48
2022/05/30 04:53:47;;;;;;;3.47;2.75;;;;;;;11.64;73.01;101079.28;5003685;28;20585;-49
2022/05/30 04:56:13;;;;;;;4.72;2.83;;;;;;;11.68;72.73;101086.63;5009588;28;20034;-49
2022/05/30 04:58:38;;;;;;;5.85;2.90;;;;;;;11.73;72.86;101077.81;5007143;28;20021;-48
2022/05/30 05:01:08;;;;;;;4.35;2.72;;;;;;;11.76;72.72;101075.44;5007800;28;20022;-48
2022/05/30 05:03:37;;;;;;;6.15;3.42;;;;;;;11.83;72.35;101071.78;5004673;28;20391;-49
2022/05/30 05:06:11;;;;;;;4.13;3.10;;;;;;;11.86;72.43;101074.00;5007291;28;20025;-49
2022/05/30 05:08:51;;;;;;;5.85;3.38;;;;;;;11.85;73.04;101072.34;5007810;28;20069;-47
2022/05/30 05:11:24;;;;;;;5.05;2.83;;;;;;;11.84;73.32;101074.22;5010331;28;20509;-48
2022/05/30 05:13:50;;;;;;;3.60;3.03;;;;;;;11.89;73.57;101076.19;5006284;28;20037;-48
2022/05/30 05:16:18;;;;;;;3.88;2.88;;;;;;;11.95;73.20;101078.69;5008255;28;20368;-48
2022/05/30 05:18:44;;;;;;;4.72;2.95;;;;;;;12.02;73.29;101073.09;5007592;28;20065;-48
2022/05/30 05:21:20;;;;;;;4.85;2.90;;;;;;;12.00;73.97;101077.91;5006647;28;20056;-49
2022/05/30 05:23:46;;;;;;;7.22;2.90;;;;;;;12.02;73.72;101083.84;5006357;28;20535;-49
2022/05/30 05:26:12;;;;;;;5.43;3.20;;;;;;;12.06;74.17;101082.31;5002223;28;20017;-49
2022/05/30 05:28:38;;;;;;;6.28;3.33;;;;;;;12.12;74.26;101078.63;5005488;28;20379;-48
2022/05/30 05:31:06;;;;;;;4.47;2.72;;;;;;;12.20;73.96;101080.84;5008697;28;20020;-49
2022/05/30 05:33:32;;;;;;;5.63;3.20;;;;;;;12.26;73.87;101077.19;5007067;28;20038;-51
2022/05/30 05:35:57;;;;;;;3.83;2.83;;;;;;;12.31;74.26;101082.59;5003342;28;20415;-48
2022/05/30 05:38:23;;;;;;;4.93;3.42;;;;;;;12.35;74.08;101078.34;5007249;28;20429;-49
2022/05/30 05:40:48;;;;;;;4.22;2.88;;;;;;;12.40;74.38;101083.00;5004564;28;20062;-49
2022/05/30 05:43:14;;;;;;;6.72;2.80;;;;;;;12.43;74.55;101090.53;5006513;28;20037;-49
2022/05/30 05:45:41;;;;;;;5.22;2.95;;;;;;;12.47;74.33;101086.28;5002333;28;20041;-50
2022/05/30 05:48:08;;;;;;;4.93;2.95;;;;;;;12.55;73.96;101090.38;5008271;28;20029;-48
2022/05/30 05:50:37;;;;;;;7.28;3.17;;;;;;;12.55;74.30;101090.38;5013995;28;20021;-49
2022/05/30 05:53:03;;;;;;;5.43;3.03;;;;;;;12.59;74.25;101089.66;5008898;28;20025;-49
2022/05/30 05:55:28;;;;;;;8.52;3.20;;;;;;;12.60;74.38;101088.59;5006102;28;20158;-48
2022/05/30 05:57:54;;;;;;;7.18;3.63;;;;;;;12.67;74.28;101096.44;5007506;28;20072;-49
2022/05/30 06:00:19;;;;;;;5.05;2.90;;;;;;;12.71;73.72;101094.84;5009596;28;20026;-48
2022/05/30 06:02:45;;;;;;;4.93;2.92;;;;;;;12.74;73.83;101101.59;5006774;28;20030;-49
2022/05/30 06:05:11;;;;;;;4.53;2.78;;;;;;;12.76;73.59;101103.00;5006813;28;20471;-48
2022/05/30 06:07:39;;;;;;;5.75;2.65;;;;;;;12.78;73.15;101103.56;5006298;28;20038;-49
2022/05/30 06:10:07;;;;;;;2.88;2.30;;;;;;;12.82;72.94;101107.34;5010389;28;20022;-47
2022/05/30 06:12:44;;;;;;;6.70;2.63;;;;;;;12.89;72.97;101104.44;5004897;28;20044;-50
2022/05/30 06:15:12;;;;;;;8.13;2.58;;;;;;;12.94;72.60;101101.81;5008261;28;20247;-48
2022/05/30 06:17:42;;;;;;;4.53;2.55;;;;;;;13.01;72.22;101102.41;5006192;28;20036;-48
2022/05/30 06:20:09;;;;;;;5.55;2.15;;;;;;;13.06;71.73;101107.03;5005691;28;20038;-49
2022/05/30 06:22:35;;;;;;;3.63;2.00;;;;;;;13.08;71.47;101104.88;5007746;28;20113;-49
2022/05/30 06:25:01;;;;;;;3.95;2.15;;;;;;;13.07;71.50;101097.88;5005121;28;20149;-50
2022/05/30 06:27:26;;;;;;;3.78;2.00;;;;;;;13.11;71.38;101101.72;5007412;28;20479;-48
2022/05/30 06:29:52;;;;;;;3.50;2.10;;;;;;;13.19;71.03;101107.44;5010569;28;20419;-48
2022/05/30 06:32:18;;;;;;;4.07;2.40;;;;;;;13.30;71.03;101106.47;5007478;28;20036;-49
2022/05/30 06:34:44;;;;;;;4.18;2.40;;;;;;;13.47;70.44;101110.91;5006050;28;20034;-48
2022/05/30 06:37:10;;;;;;;4.30;2.40;;;;;;;13.68;69.95;101107.28;5007801;28;20058;-49
2022/05/30 06:39:37;;;;;;;4.45;2.38;;;;;;;13.85;69.55;101110.63;5006724;28;20384;-48
2022/05/30 06:42:04;;;;;;;3.40;2.15;;;;;;;14.01;68.83;101100.72;5012610;28;20310;-50
2022/05/30 06:44:31;;;;;;;3.60;2.08;;;;;;;14.10;68.19;101114.50;5004960;28;20048;-50
2022/05/30 06:46:57;;;;;;;7.53;2.38;;;;;;;14.18;67.81;101106.75;5006841;28;20045;-50
2022/05/30 06:49:22;;;;;;;5.43;2.83;;;;;;;14.18;67.50;101114.00;5007671;28;20033;-49
2022/05/30 06:51:48;;;;;;;3.03;2.33;;;;;;;14.15;67.42;101111.81;5007719;28;20039;-48
2022/05/30 06:54:13;;;;;;;7.80;2.55;;;;;;;14.11;67.21;101119.63;5005059;28;20033;-49
2022/05/30 06:59:26;;;;;;;4.93;2.50;;;;;;;13.96;67.70;101119.53;5006964;28;20091;-49
2022/05/30 07:01:52;;;;;;;5.65;2.15;;;;;;;13.93;67.61;101116.56;5008351;28;20021;-48
2022/05/30 07:04:18;;;;;;;4.28;2.17;;;;;;;13.88;67.38;101122.75;5008365;28;20037;-48
2022/05/30 07:06:45;;;;;;;3.00;2.20;;;;;;;13.89;67.24;101119.78;5006743;28;20091;-48
2022/05/30 07:09:11;;;;;;;3.45;2.10;;;;;;;13.94;66.97;101127.06;5007007;28;20026;-48
2022/05/30 07:11:39;;;;;;;4.22;2.10;;;;;;;13.97;66.88;101125.75;5003328;28;20023;-49
2022/05/30 07:14:12;;;;;;;6.18;2.42;;;;;;;13.98;66.80;101132.75;5006051;28;20440;-49
2022/05/30 07:16:39;;;;;;;2.92;1.88;;;;;;;14.01;66.55;101127.69;5001880;28;20022;-48
2022/05/30 07:19:05;;;;;;;3.95;2.22;;;;;;;13.97;66.69;101125.75;5011633;28;20032;-48
2022/05/30 07:21:31;;;;;;;4.20;2.35;;;;;;;14.07;66.12;101120.41;5006994;28;20025;-48
2022/05/30 07:23:57;;;;;;;3.75;2.10;;;;;;;14.15;65.74;101120.72;5006188;28;20030;-49
2022/05/30 07:26:22;;;;;;;3.67;2.42;;;;;;;14.17;65.35;101118.56;5002011;28;20041;-49
2022/05/30 07:28:49;;;;;;;4.18;2.00;;;;;;;14.28;65.05;101124.00;5007871;28;20036;-48
2022/05/30 07:31:19;;;;;;;3.22;1.95;;;;;;;14.33;64.82;101121.34;5006909;28;20022;-48
2022/05/30 07:33:48;;;;;;;4.03;2.13;;;;;;;14.36;64.73;101112.72;5002790;28;20924;-48
2022/05/30 07:36:21;;;;;;;6.53;2.50;;;;;;;14.43;64.41;101116.84;5007847;28;20021;-48
2022/05/30 07:38:47;;;;;;;4.35;2.33;;;;;;;14.52;64.27;101117.94;5006243;28;20025;-48
2022/05/30 07:41:13;;;;;;;2.72;1.95;;;;;;;14.60;64.15;101113.09;5005144;28;20153;-48
2022/05/30 07:43:38;;;;;;;3.97;2.28;;;;;;;14.66;63.88;101120.13;5003861;28;20033;-48
2022/05/30 07:46:07;;;;;;;3.33;2.05;;;;;;;14.80;63.55;101113.97;5009809;28;20036;-48
2022/05/30 07:48:33;;;;;;;3.78;2.78;;;;;;;14.98;63.45;101115.34;5004883;28;20364;-49
2022/05/30 07:51:00;;;;;;;2.92;2.50;;;;;;;15.14;62.79;101108.06;5007052;28;20045;-51
2022/05/30 07:53:26;;;;;;;3.15;1.70;;;;;;;15.37;61.87;101107.50;5006990;28;20041;-49
2022/05/30 07:55:52;;;;;;;2.55;1.70;;;;;;;15.60;60.79;101106.16;5003800;28;20033;-51
2022/05/30 07:58:18;;;;;;;3.63;2.10;;;;;;;15.77;60.48;101116.66;4998050;28;20045;-48
2022/05/30 08:00:44;;;;;;;2.33;1.60;;;;;;;15.87;60.23;101105.03;5003873;28;20045;-48
2022/05/30 08:03:11;;;;;;;4.10;1.83;;;;;;;15.80;59.86;101108.03;5003876;28;20034;-48
2022/05/30 08:05:39;;;;;;;1.75;1.42;;;;;;;15.62;60.69;101120.22;5000875;28;20026;-48
2022/05/30 08:08:06;;;;;;;2.65;1.42;;;;;;;15.43;61.15;101128.03;5005839;28;20022;-48
2022/05/30 08:10:32;;;;;;;6.65;1.70;;;;;;;15.19;62.91;101121.56;5001304;28;20308;-49
2022/05/30 08:12:57;;;;;;;7.63;1.98;;;;;;;15.04;63.99;101124.25;5005768;28;20056;-50
2022/05/30 08:15:23;;;;;;;3.67;1.77;;;;;;;14.95;64.80;101125.88;5006650;28;20057;-49
2022/05/30 08:17:54;;;;;;;3.38;2.00;;;;;;;14.78;65.31;101132.31;5006074;28;20033;-48
2022/05/30 08:20:20;;;;;;;3.88;2.22;;;;;;;14.69;65.87;101131.19;5006909;28;20407;-48
2022/05/30 08:22:45;;;;;;;5.15;2.20;;;;;;;14.71;66.63;101130.91;5006750;28;20574;-48
2022/05/30 08:25:14;;;;;;;6.32;2.38;;;;;;;14.73;67.12;101124.22;5004497;28;20041;-48
2022/05/30 08:27:42;;;;;;;5.35;2.08;;;;;;;14.79;67.54;101138.50;5003929;28;20462;-48
2022/05/30 08:30:09;;;;;;;3.83;2.30;;;;;;;14.74;68.40;101136.63;5004300;28;20598;-48
2022/05/30 08:32:41;;;;;;;4.93;2.20;;;;;;;14.64;68.93;101136.56;5009744;28;20112;-48
2022/05/30 08:35:08;;;;;;;4.22;1.90;;;;;;;14.70;68.91;101134.69;5010491;28;20026;-49
2022/05/30 08:37:37;;;;;;;3.67;2.13;;;;;;;14.81;68.67;101133.66;5007200;28;20127;-47
2022/05/30 08:43:15;;;;;;;3.22;2.33;;;;;;;14.90;69.00;101142.84;5007374;28;20041;-48
2022/05/30 08:45:42;;;;;;;4.72;2.28;;;;;;;15.00;68.59;101145.56;5005085;28;20021;-48
2022/05/30 08:48:14;;;;;;;4.82;2.30;;;;;;;15.07;67.79;101142.59;5010332;28;20396;-48
2022/05/30 08:50:53;;;;;;;3.83;2.15;;;;;;;15.07;66.85;101137.19;5010207;28;20021;-48
2022/05/30 08:54:00;;;;;;;4.03;2.38;;;;;;;14.98;66.19;101133.41;5008133;28;20480;-48
2022/05/30 08:56:31;;;;;;;4.97;2.13;;;;;;;15.00;65.83;101142.03;4974727;28;20385;-48
2022/05/30 08:58:56;;;;;;;7.50;2.40;;;;;;;15.02;65.58;101142.59;5005356;28;20037;-50
2022/05/30 09:01:39;;;;;;;4.53;2.30;;;;;;;15.06;65.01;101143.66;5010716;28;20465;-47
2022/05/30 09:04:22;;;;;;;4.05;2.25;;;;;;;15.15;65.45;101147.47;5009057;28;20422;-48
2022/05/30 09:07:00;;;;;;;3.20;2.22;;;;;;;15.23;65.01;101146.91;5012465;28;20114;-48
2022/05/30 09:09:48;;;;;;;5.53;2.05;;;;;;;15.33;64.20;101141.53;5007257;28;20407;-48
2022/05/30 09:12:25;;;;;;;3.88;1.48;;;;;;;15.41;63.67;101143.69;5006527;28;20487;-50
2022/05/30 09:15:11;;;;;;;3.85;1.70;;;;;;;15.47;61.99;101143.72;5006415;28;20038;-48
2022/05/30 09:17:49;;;;;;;4.88;1.85;;;;;;;15.46;62.06;101134.78;5008878;28;20025;-49
2022/05/30 09:20:19;;;;;;;3.67;1.95;;;;;;;15.52;61.24;101139.09;5008157;28;20135;-48
2022/05/30 09:22:45;;;;;;;3.50;1.60;;;;;;;15.60;61.28;101143.16;5007736;28;20037;-49
2022/05/30 09:28:00;;;;;;;3.03;1.98;;;;;;;15.95;60.18;101142.28;5005783;28;20577;-49
2022/05/30 09:30:36;;;;;;;2.58;2.05;;;;;;;15.85;58.81;101137.75;5005712;28;20034;-49
2022/05/30 09:33:26;;;;;;;4.88;1.85;;;;;;;15.84;59.03;101143.41;5009063;28;20122;-50
2022/05/30 09:36:11;;;;;;;3.28;2.00;;;;;;;15.87;58.31;101140.97;5023093;23;20076;-44
2022/05/30 09:38:45;;;;;;;4.55;2.00;;;;;;;15.89;57.83;101138.81;5025120;28;20459;-45
2022/05/30 09:41:26;;;;;;;3.77;1.90;;;;;;;15.96;57.73;101142.03;5024640;28;20037;-44
2022/05/30 09:43:58;;;;;;;4.25;2.08;;;;;;;16.02;56.61;101146.34;5025539;28;21036;-45
2022/05/30 09:46:36;;;;;;;3.90;1.85;;;;;;;16.19;56.17;101137.91;5016778;28;20025;-45
2022/05/30 09:49:21;;;;;;;3.85;1.45;;;;;;;16.35;55.08;101130.56;5006438;28;20036;-46
2022/05/30 09:51:50;;;;;;;3.03;1.77;;;;;;;16.48;53.56;101127.22;5005184;28;20022;-44
2022/05/30 09:54:24;;;;;;;3.08;1.15;;;;;;;16.57;52.43;101130.19;4999261;28;20057;-44
2022/05/30 09:56:54;;;;;;;1.92;1.70;;;;;;;16.66;52.31;101122.28;5009390;28;20025;-45
2022/05/30 09:59:37;;;;;;;5.05;1.40;;;;;;;16.76;51.61;101122.25;5002270;28;20048;-45
2022/05/30 10:02:03;;;;;;;6.07;2.10;;;;;;;16.52;52.81;101127.50;5008379;28;20026;-45
2022/05/30 10:04:35;;;;;;;7.10;2.00;;;;;;;16.35;53.41;101127.06;5003033;28;20652;-45
2022/05/30 10:07:06;;;;;;;3.83;2.10;;;;;;;16.20;53.61;101127.91;5007412;28;20287;-45
2022/05/30 10:09:34;;;;;;;3.05;2.10;;;;;;;16.20;54.07;101119.81;5003863;28;20044;-45
2022/05/30 10:12:00;;;;;;;2.17;1.52;;;;;;;16.29;54.08;101118.13;5004564;28;20447;-45
2022/05/30 10:14:32;;;;;;;2.92;1.77;;;;;;;16.30;53.15;101117.84;4997782;28;20116;-47
2022/05/30 10:17:11;;;;;;;5.32;1.80;;;;;;;16.26;51.51;101114.09;5004778;28;20407;-45
2022/05/30 10:19:42;;;;;;;3.65;1.48;;;;;;;16.46;52.52;101118.59;4997729;28;20030;-44
2022/05/30 10:28:44;;;;;;;2.22;1.63;;;;;;;16.60;51.40;101124.22;5002818;28;20130;-46
2022/05/30 10:31:30;;;;;;;3.20;1.52;;;;;;;16.64;51.21;101119.84;4997622;28;20033;-45
2022/05/30 10:34:24;;;;;;;3.30;1.30;;;;;;;16.82;50.48;101118.44;5001449;28;20395;-46
2022/05/30 10:36:58;;;;;;;4.80;1.45;;;;;;;17.03;50.27;101119.91;4999454;28;20130;-45
2022/05/30 10:39:33;;;;;;;2.00;1.23;;;;;;;17.11;49.36;101121.22;5000418;28;20141;-44
2022/05/30 10:42:08;;;;;;;3.97;1.42;;;;;;;17.06;47.82;101127.47;5004681;28;20444;-44
2022/05/30 10:44:49;;;;;;;4.82;1.13;;;;;;;17.00;47.40;101139.41;5002143;28;20119;-44
2022/05/30 10:47:45;;;;;;;1.98;1.08;;;;;;;16.92;47.96;101137.31;4992183;28;20046;-44
2022/05/30 10:50:51;;;;;;;2.53;1.25;;;;;;;17.05;47.91;101125.84;4999364;28;20076;-44
2022/05/30 10:53:36;;;;;;;1.42;1.10;;;;;;;17.30;46.09;101126.75;4998411;28;20061;-44
2022/05/30 10:56:16;;;;;;;4.25;1.50;;;;;;;17.30;46.30;101143.00;5001648;28;20522;-44
2022/05/30 10:59:11;;;;;;;3.25;1.90;;;;;;;17.00;46.59;101134.00;4995869;28;20046;-46
2022/05/30 11:01:49;;;;;;;4.55;1.83;;;;;;;16.79;47.22;101141.44;5000752;28;20108;-45
2022/05/30 11:04:43;;;;;;;6.65;1.52;;;;;;;16.78;48.00;101136.31;4996149;28;20030;-45
2022/05/30 11:07:38;;;;;;;2.10;1.33;;;;;;;16.91;47.69;101138.41;4999030;28;20080;-46
2022/05/30 11:10:18;;;;;;;2.55;1.30;;;;;;;17.10;46.83;101133.13;5000123;28;20034;-44
2022/05/30 11:12:58;;;;;;;3.55;1.30;;;;;;;17.35;46.81;101129.41;5000608;28;20034;-45
2022/05/30 11:15:45;;;;;;;2.40;1.13;;;;;;;17.49;46.19;101146.63;4998865;28;20391;-46
2022/05/30 11:18:23;;;;;;;3.42;1.15;;;;;;;17.38;45.66;101135.06;4998649;28;20446;-46
2022/05/30 11:21:02;;;;;;;4.50;1.50;;;;;;;17.36;46.91;101145.38;5005060;28;20030;-44
2022/05/30 11:23:33;;;;;;;5.20;1.30;;;;;;;17.40;46.63;101143.69;4997467;28;20084;-44
2022/05/30 11:26:38;;;;;;;2.03;1.30;;;;;;;17.45;45.99;101140.16;5001154;28;20033;-44
2022/05/30 11:29:43;;;;;;;3.42;1.60;;;;;;;17.40;45.30;101140.19;4999400;28;20082;-44
2022/05/30 11:32:27;;;;;;;2.72;1.30;;;;;;;17.41;44.87;101141.78;5001334;28;20030;-44
2022/05/30 11:35:24;;;;;;;3.35;1.10;;;;;;;17.33;44.45;101140.53;5000641;28;20049;-46
2022/05/30 11:37:56;;;;;;;2.40;0.90;;;;;;;17.53;44.26;101132.22;4996905;28;20372;-45
2022/05/30 11:40:49;;;;;;;2.13;0.70;;;;;;;17.95;41.96;101130.72;4997183;28;20038;-44
2022/05/30 11:43:38;;;;;;;1.25;0.55;;;;;;;18.32;40.65;101132.78;4998971;28;20097;-45
2022/05/30 11:46:28;;;;;;;2.40;0.70;;;;;;;18.42;41.72;101134.53;4996772;28;20029;-46
2022/05/30 11:48:59;;;;;;;2.97;0.85;;;;;;;18.35;41.98;101139.50;5000422;28;20022;-44
2022/05/30 11:51:40;;;;;;;1.13;0.77;;;;;;;18.04;42.62;101147.19;4995862;28;20156;-46
2022/05/30 11:54:46;;;;;;;2.45;1.02;;;;;;;17.79;43.08;101140.97;4998543;28;20038;-44
2022/05/30 11:57:35;;;;;;;3.70;1.08;;;;;;;17.61;43.38;101146.25;5000440;28;20041;-45
2022/05/30 12:00:14;;;;;;;1.38;0.73;;;;;;;17.68;44.06;101144.84;4996264;28;20217;-44